Time;durP1;ratioP1;P1;durP2;ratioP2;P2;SDS_P1;SDS_P2;PMS_P1;PMS_P2;Temp;Humidity;BMP_temperature;BMP_pressure;BME280_temperature;BME280_humidity;BME280_pressure;Samples;Min_cycle;Max_cycle;Signal;HPM_P1;HPM_P2
2023/06/26 00:00:13;;;;;;;1.45;1.45;;;26.50;99.90;;;26.92;56.70;101152.59;4726716;30;20128;-66
2023/06/26 00:02:42;;;;;;;1.50;1.50;;;26.40;99.90;;;26.88;57.07;101137.47;4725378;30;20065;-67
2023/06/26 00:05:10;;;;;;;1.50;1.50;;;26.40;99.90;;;26.92;57.11;101149.00;4725781;30;20396;-66
2023/06/26 00:07:38;;;;;;;1.42;1.42;;;26.40;99.90;;;26.89;57.54;101150.06;4725729;30;20087;-67
2023/06/26 00:10:08;;;;;;;1.60;1.60;;;26.40;99.90;;;26.61;57.18;101117.59;4724996;30;20131;-66
2023/06/26 00:12:36;;;;;;;1.58;1.58;;;26.30;99.90;;;26.75;57.47;101151.00;4726655;30;20060;-66
2023/06/26 00:15:07;;;;;;;1.58;1.58;;;26.30;99.90;;;26.68;57.89;101157.78;4724214;30;20053;-67
2023/06/26 00:17:38;;;;;;;2.05;1.95;;;26.20;99.90;;;26.62;58.28;101165.47;4723051;30;20057;-66
2023/06/26 00:20:08;;;;;;;1.85;1.75;;;26.10;99.90;;;26.55;58.71;101167.72;4726625;30;20056;-66
2023/06/26 00:22:40;;;;;;;1.50;1.50;;;26.00;99.90;;;26.47;59.27;101158.31;4725666;30;20061;-66
2023/06/26 00:25:09;;;;;;;1.50;1.50;;;26.00;99.90;;;26.36;59.95;101155.44;4725012;30;20060;-67
2023/06/26 00:27:37;;;;;;;1.90;1.88;;;25.90;99.90;;;26.23;60.50;101160.78;4726094;30;20061;-66
2023/06/26 00:30:06;;;;;;;2.28;2.17;;;25.70;99.90;;;26.14;61.29;101155.97;4724613;30;20488;-66
2023/06/26 00:32:37;;;;;;;;;;;25.60;99.90;;;26.08;61.80;101153.66;4727605;30;20504;-67
2023/06/26 00:35:07;;;;;;;1.70;1.70;;;25.50;99.90;;;26.04;62.14;101156.59;4708088;30;19926;-67
2023/06/26 00:37:35;;;;;;;1.65;1.65;;;25.50;99.90;;;25.95;62.58;101152.66;4716865;30;20504;-67
2023/06/26 00:40:05;;;;;;;1.55;1.55;;;25.40;99.90;;;25.97;62.77;101157.97;4707879;30;20144;-67
2023/06/26 00:42:34;;;;;;;1.73;1.73;;;25.40;99.90;;;25.90;62.98;101152.94;4709818;30;20402;-66
2023/06/26 00:45:03;;;;;;;1.55;1.55;;;25.40;99.90;;;25.91;63.33;101161.94;4724920;30;20581;-67
2023/06/26 00:47:32;;;;;;;1.67;1.67;;;25.40;99.90;;;25.85;63.65;101159.63;4708228;30;20061;-68
2023/06/26 00:50:02;;;;;;;2.17;2.08;;;25.30;99.90;;;25.79;63.87;101160.88;4726175;30;20067;-67
2023/06/26 00:52:30;;;;;;;1.90;1.80;;;25.30;99.90;;;25.79;64.27;101157.28;4708135;30;20041;-67
2023/06/26 00:55:00;;;;;;;2.13;2.03;;;25.20;99.90;;;25.60;64.33;101132.31;4708231;30;20067;-67
2023/06/26 00:57:29;;;;;;;2.03;1.92;;;25.20;99.90;;;25.68;64.42;101157.09;4710739;30;20057;-67
2023/06/26 00:59:57;;;;;;;1.70;1.70;;;25.20;99.90;;;25.07;64.40;101051.63;4724708;30;20119;-67
2023/06/26 01:02:33;;;;;;;1.80;1.77;;;25.10;99.90;;;25.67;64.25;101164.34;4725749;30;20056;-66
2023/06/26 01:05:06;;;;;;;1.83;1.80;;;25.20;99.90;;;25.57;64.60;101152.34;4726015;30;20450;-67
2023/06/26 01:07:37;;;;;;;1.85;1.75;;;25.10;99.90;;;25.58;64.85;101153.22;4709546;30;20079;-66
2023/06/26 01:10:07;;;;;;;1.55;1.55;;;25.10;99.90;;;25.55;64.98;101166.97;4729437;30;20063;-66
2023/06/26 01:12:38;;;;;;;;;;;25.10;99.90;;;25.51;65.13;101162.69;4728250;30;20053;-66
2023/06/26 01:15:09;;;;;;;1.65;1.65;;;25.00;99.90;;;25.35;65.28;101146.47;4728374;30;20282;-67
2023/06/26 01:17:39;;;;;;;1.73;1.73;;;25.00;99.90;;;25.43;65.53;101163.16;4728802;30;20123;-66
2023/06/26 01:20:15;;;;;;;1.63;1.63;;;25.00;99.90;;;25.45;65.63;101163.94;4711029;30;20485;-67
2023/06/26 01:22:52;;;;;;;2.13;2.03;;;25.00;99.90;;;25.46;65.68;101152.13;4727136;30;20064;-66
2023/06/26 01:25:35;;;;;;;1.70;1.70;;;24.90;99.90;;;25.50;65.69;101155.53;4727815;30;20049;-66
2023/06/26 01:28:06;;;;;;;1.58;1.58;;;25.00;99.90;;;25.47;65.42;101147.59;4725838;30;20060;-67
2023/06/26 01:30:40;;;;;;;1.90;1.83;;;25.00;99.90;;;25.50;65.22;101150.09;4712915;30;20074;-66
2023/06/26 01:33:08;;;;;;;2.15;2.05;;;25.00;99.90;;;25.50;65.45;101155.53;4728242;30;20500;-66
2023/06/26 01:35:38;;;;;;;2.00;1.90;;;25.00;99.90;;;25.49;65.47;101157.34;4727587;30;20145;-67
2023/06/26 01:38:17;;;;;;;2.25;2.15;;;25.00;99.90;;;25.45;65.59;101171.19;4713398;30;20052;-67
2023/06/26 01:40:46;;;;;;;2.20;2.10;;;24.90;99.90;;;25.49;65.43;101168.19;4719231;30;20057;-66
2023/06/26 01:43:22;;;;;;;1.90;1.80;;;25.00;99.90;;;25.42;65.41;101161.41;4718917;30;20103;-66
2023/06/26 01:45:55;;;;;;;1.90;1.83;;;25.00;99.90;;;25.33;65.53;101167.38;4718982;30;20052;-66
2023/06/26 01:48:29;;;;;;;2.10;2.00;;;24.90;99.90;;;25.20;65.80;101165.50;4703538;30;20119;-66
2023/06/26 01:51:00;;;;;;;2.00;1.90;;;24.80;99.90;;;25.25;65.80;101161.53;4719121;30;20053;-66
2023/06/26 01:53:37;;;;;;;1.92;1.85;;;24.80;99.90;;;25.14;65.94;101161.31;4717918;30;20061;-66
2023/06/26 01:56:12;;;;;;;2.00;1.90;;;24.70;99.90;;;25.04;65.88;101160.13;4729096;30;20056;-66
2023/06/26 01:58:46;;;;;;;2.05;1.95;;;24.60;99.90;;;25.01;65.72;101172.00;4725443;30;20049;-66
2023/06/26 02:01:15;;;;;;;2.78;2.58;;;24.60;99.90;;;24.94;65.89;101162.50;4711728;30;20060;-67
2023/06/26 02:03:43;;;;;;;2.00;1.90;;;24.40;99.90;;;24.91;65.99;101169.94;4723726;30;20059;-66
2023/06/26 02:06:12;;;;;;;2.00;1.90;;;24.40;99.90;;;24.94;66.02;101165.22;4726951;30;20090;-67
2023/06/26 02:08:41;;;;;;;2.25;2.15;;;24.40;99.90;;;24.87;65.89;101162.94;4726410;30;20063;-66
2023/06/26 02:11:09;;;;;;;2.15;2.05;;;24.40;99.90;;;24.73;66.38;101149.34;4728972;30;20092;-67
2023/06/26 02:13:38;;;;;;;7.28;5.50;;;24.30;99.90;;;24.70;67.42;101149.50;4703023;30;20061;-66
2023/06/26 02:16:07;;;;;;;2.40;2.30;;;24.20;99.90;;;24.56;67.21;101166.53;4709929;30;20045;-66
2023/06/26 02:18:36;;;;;;;2.17;2.08;;;24.10;99.90;;;24.42;67.36;101179.97;4722687;30;20091;-66
2023/06/26 02:21:05;;;;;;;2.30;2.20;;;24.00;99.90;;;24.41;66.98;101185.47;4727571;30;20059;-66
2023/06/26 02:23:33;;;;;;;2.30;2.20;;;24.00;99.90;;;24.33;67.44;101176.91;4726992;30;20144;-66
2023/06/26 02:26:02;;;;;;;2.20;2.10;;;23.90;99.90;;;24.28;67.45;101182.56;4727063;30;20135;-67
2023/06/26 02:28:31;;;;;;;2.30;2.20;;;23.90;99.90;;;24.17;67.65;101177.78;4710318;30;20060;-66
2023/06/26 02:30:59;;;;;;;2.28;2.17;;;23.80;99.90;;;24.24;67.81;101177.41;4711751;30;20056;-66
2023/06/26 02:33:29;;;;;;;2.00;1.90;;;23.80;99.90;;;23.82;68.22;101186.91;4725886;30;20052;-66
2023/06/26 02:35:57;;;;;;;2.13;2.03;;;23.40;99.90;;;23.91;68.57;101191.81;4727381;30;20064;-66
2023/06/26 02:38:26;;;;;;;2.88;2.67;;;23.40;99.90;;;23.94;68.55;101188.91;4725176;30;20064;-66
2023/06/26 02:40:54;;;;;;;2.70;2.60;;;23.40;99.90;;;23.96;68.08;101189.69;4728096;30;20438;-66
2023/06/26 02:43:23;;;;;;;2.20;2.10;;;23.50;99.90;;;23.92;68.05;101187.28;4724774;30;20496;-66
2023/06/26 02:45:51;;;;;;;2.55;2.45;;;23.50;99.90;;;23.87;68.38;101194.75;4718765;30;20049;-66
2023/06/26 02:48:19;;;;;;;2.55;2.45;;;23.40;99.90;;;23.84;68.22;101195.81;4709904;30;20061;-66
2023/06/26 02:50:49;;;;;;;3.10;2.90;;;23.40;99.90;;;23.61;68.59;101177.25;4711208;30;20520;-66
2023/06/26 02:53:19;;;;;;;2.47;2.38;;;23.40;99.90;;;23.69;69.17;101193.91;4717277;30;20099;-66
2023/06/26 02:55:48;;;;;;;2.80;2.70;;;23.20;99.90;;;23.55;69.61;101204.59;4727905;30;20056;-65
2023/06/26 02:58:18;;;;;;;2.40;2.30;;;23.10;99.90;;;23.19;70.92;101196.50;4716754;30;20059;-67
2023/06/26 03:00:46;;;;;;;2.42;2.33;;;22.80;99.90;;;23.14;70.97;101205.81;4702162;30;20088;-66
2023/06/26 03:03:17;;;;;;;2.83;2.67;;;22.70;99.90;;;23.23;70.42;101210.72;4702275;30;20057;-67
2023/06/26 03:05:46;;;;;;;2.63;2.53;;;22.70;99.90;;;23.21;70.49;101218.91;4702113;30;20111;-66
2023/06/26 03:08:16;;;;;;;3.95;3.63;;;22.80;99.90;;;23.11;70.50;101220.31;4705552;30;20070;-66
2023/06/26 03:10:44;;;;;;;2.33;2.22;;;22.70;99.90;;;23.05;71.23;101226.03;4711077;30;20060;-65
2023/06/26 03:13:13;;;;;;;2.60;2.50;;;22.60;99.90;;;22.76;71.88;101204.16;4717038;30;20053;-66
2023/06/26 03:15:41;;;;;;;2.50;2.40;;;22.50;99.90;;;22.97;71.36;101211.19;4726018;30;20064;-65
2023/06/26 03:18:10;;;;;;;4.45;3.17;;;22.50;99.90;;;22.81;72.39;101213.75;4716563;30;20048;-66
2023/06/26 03:20:38;;;;;;;2.53;2.42;;;22.40;99.90;;;22.71;73.16;101230.47;4724599;30;20053;-66
2023/06/26 03:23:07;;;;;;;2.10;2.00;;;22.30;99.90;;;22.51;74.29;101226.03;4717584;30;20041;-66
2023/06/26 03:25:37;;;;;;;3.67;3.47;;;22.10;99.90;;;22.57;74.06;101224.88;4717769;30;20122;-66
2023/06/26 03:28:26;;;;;;;3.15;2.95;;;22.10;99.90;;;22.43;74.44;101225.50;4723947;30;20064;-66
2023/06/26 03:30:54;;;;;;;2.75;2.65;;;22.00;99.90;;;22.44;74.92;101232.63;4718289;30;20151;-66
2023/06/26 03:33:22;;;;;;;2.53;2.42;;;22.00;99.90;;;22.44;74.55;101225.44;4723947;30;20140;-66
2023/06/26 03:35:51;;;;;;;2.33;2.22;;;22.00;99.90;;;22.48;75.19;101228.84;4726768;30;20056;-66
2023/06/26 03:38:21;;;;;;;3.70;3.50;;;22.00;99.90;;;22.31;75.40;101229.66;4724688;30;20057;-66
2023/06/26 03:40:50;;;;;;;2.72;2.63;;;21.90;99.90;;;22.40;75.52;101226.53;4716710;30;20059;-66
2023/06/26 03:43:19;;;;;;;3.67;3.47;;;21.90;99.90;;;22.42;76.11;101230.00;4726272;30;20053;-66
2023/06/26 03:46:00;;;;;;;2.75;2.65;;;21.90;99.90;;;22.34;75.20;101239.41;4713971;30;20057;-66
2023/06/26 03:48:28;;;;;;;2.25;2.15;;;21.90;99.90;;;22.27;75.32;101209.19;4717970;30;20595;-66
2023/06/26 03:50:57;;;;;;;2.67;2.58;;;21.90;99.90;;;22.47;75.39;101261.28;4725613;30;20060;-66
2023/06/26 03:53:25;;;;;;;2.65;2.55;;;22.00;99.90;;;22.42;75.63;101234.53;4710179;30;20052;-66
2023/06/26 03:55:55;;;;;;;3.10;3.00;;;22.00;99.90;;;22.33;75.92;101249.34;4710592;30;20591;-66
2023/06/26 03:58:25;;;;;;;;;;;21.90;99.90;;;22.15;76.05;101244.78;4716717;30;20084;-66
2023/06/26 04:00:55;;;;;;;3.10;2.90;;;21.70;99.90;;;22.05;76.52;101251.53;4722881;30;19926;-67
2023/06/26 04:03:24;;;;;;;2.55;2.45;;;21.60;99.90;;;22.19;76.57;101259.88;4701440;30;20142;-66
2023/06/26 04:05:52;;;;;;;2.97;2.88;;;21.70;99.90;;;22.01;76.23;101270.63;4708391;30;20057;-66
2023/06/26 04:08:21;;;;;;;2.80;2.70;;;21.60;99.90;;;21.98;76.13;101281.53;4708724;30;20064;-66
2023/06/26 04:10:52;;;;;;;2.70;2.60;;;21.60;99.90;;;21.88;76.92;101272.97;4724927;30;20088;-66
2023/06/26 04:13:21;;;;;;;2.53;2.42;;;21.50;99.90;;;21.84;76.87;101283.94;4725572;30;20056;-66
2023/06/26 04:15:50;;;;;;;3.53;3.33;;;21.40;99.90;;;21.67;78.12;101289.16;4724494;30;20127;-66
2023/06/26 04:18:20;;;;;;;2.53;2.42;;;21.30;99.90;;;21.83;77.69;101293.88;4725785;30;20053;-67
2023/06/26 04:21:08;;;;;;;3.40;3.20;;;21.40;99.90;;;21.76;78.85;101283.38;4723681;30;20053;-66
2023/06/26 04:23:37;;;;;;;2.80;2.70;;;21.30;99.90;;;21.73;78.46;101289.78;4715334;30;20489;-66
2023/06/26 04:26:06;;;;;;;2.70;2.60;;;21.30;99.90;;;21.84;78.27;101292.91;4716222;30;20057;-66
2023/06/26 04:28:36;;;;;;;2.83;2.72;;;21.40;99.90;;;21.82;78.22;101300.19;4716219;30;20408;-66
2023/06/26 04:31:05;;;;;;;2.65;2.55;;;21.40;99.90;;;21.73;78.82;101303.25;4716241;30;20393;-65
2023/06/26 04:33:33;;;;;;;3.97;3.35;;;21.30;99.90;;;21.70;78.94;101313.28;4716332;30;20135;-65
2023/06/26 04:36:03;;;;;;;3.90;3.58;;;21.20;99.90;;;21.66;79.53;101301.75;4715071;30;20053;-66
2023/06/26 04:38:31;;;;;;;9.13;4.03;;;21.20;99.90;;;21.59;80.23;101297.56;4717321;30;20064;-65
2023/06/26 04:41:00;;;;;;;2.70;2.60;;;21.20;99.90;;;21.72;80.51;101314.94;4724813;30;20056;-65
2023/06/26 04:43:29;;;;;;;4.15;3.75;;;21.20;99.90;;;21.83;80.30;101319.91;4727788;30;20052;-66
2023/06/26 04:45:58;;;;;;;3.05;2.90;;;21.30;99.90;;;21.76;81.10;101321.97;4728016;30;20053;-65
2023/06/26 04:48:28;;;;;;;4.25;3.53;;;21.30;99.90;;;21.67;81.22;101308.00;4729366;30;20040;-66
2023/06/26 04:50:58;;;;;;;3.78;3.47;;;21.30;99.90;;;21.77;81.34;101321.03;4726368;30;20144;-66
2023/06/26 04:53:27;;;;;;;4.80;4.28;;;21.30;99.90;;;21.82;81.66;101331.63;4726557;30;20057;-67
2023/06/26 04:55:55;;;;;;;2.72;2.63;;;21.40;99.90;;;21.75;80.36;101320.22;4729186;30;20539;-66
2023/06/26 04:58:24;;;;;;;4.22;3.83;;;21.40;99.90;;;21.77;81.13;101331.81;4727025;30;20454;-66
2023/06/26 05:00:52;;;;;;;2.35;2.25;;;21.30;99.90;;;21.62;81.04;101327.09;4728159;30;20458;-65
2023/06/26 05:03:23;;;;;;;3.47;3.28;;;21.20;99.90;;;21.57;81.75;101331.78;4711020;30;20057;-66
2023/06/26 05:05:52;;;;;;;3.63;3.33;;;21.20;99.90;;;21.52;81.39;101333.78;4728234;30;20057;-66
2023/06/26 05:08:24;;;;;;;7.07;3.10;;;21.10;99.90;;;21.41;80.35;101345.00;4726680;30;20053;-66
2023/06/26 05:10:53;;;;;;;2.72;2.63;;;21.00;99.90;;;21.46;78.72;101355.59;4729370;30;20106;-66
2023/06/26 05:13:21;;;;;;;5.28;3.20;;;21.00;99.90;;;21.35;76.94;101349.78;4718899;30;20072;-66
2023/06/26 05:15:50;;;;;;;2.83;2.72;;;21.00;99.90;;;20.98;74.96;101357.53;4717772;30;20519;-67
2023/06/26 05:18:18;;;;;;;3.97;3.10;;;20.60;99.90;;;21.00;74.37;101363.72;4718867;30;20052;-66
2023/06/26 05:20:49;;;;;;;8.02;2.80;;;20.60;99.90;;;21.11;74.03;101367.78;4722210;30;20071;-67
2023/06/26 05:23:19;;;;;;;7.18;3.05;;;20.70;99.90;;;20.92;75.04;101368.53;4727524;30;20401;-67
2023/06/26 05:25:50;;;;;;;4.87;3.20;;;20.50;99.90;;;21.03;75.11;101369.00;4726724;30;20060;-67
2023/06/26 05:28:18;;;;;;;;;;;20.50;99.90;;;21.13;74.57;101368.59;4729108;30;20057;-67
2023/06/26 05:30:47;;;;;;;2.97;2.88;;;20.70;99.90;;;21.05;73.86;101365.31;4725625;30;20026;-67
2023/06/26 05:33:19;;;;;;;2.70;2.53;;;20.70;99.90;;;20.86;72.07;101377.72;4718520;30;20060;-68
2023/06/26 05:35:50;;;;;;;3.38;3.17;;;20.50;99.90;;;20.84;73.52;101384.06;4718465;30;20519;-67
2023/06/26 05:38:19;;;;;;;3.22;3.10;;;20.40;99.90;;;21.05;72.93;101394.91;4718393;30;20041;-67
2023/06/26 05:40:48;;;;;;;2.50;2.40;;;20.50;99.90;;;21.11;73.00;101410.84;4725329;30;20056;-68
2023/06/26 05:43:20;;;;;;;2.78;2.67;;;20.60;99.90;;;21.13;73.18;101408.06;4727422;30;20077;-67
2023/06/26 05:45:55;;;;;;;2.58;2.47;;;20.70;99.90;;;21.25;72.15;101407.59;4725732;30;20053;-67
2023/06/26 05:48:23;;;;;;;9.23;4.10;;;20.70;99.90;;;21.12;71.79;101407.19;4727892;30;20072;-67
2023/06/26 05:50:54;;;;;;;2.78;2.67;;;20.70;99.90;;;20.94;71.40;101396.25;4726253;30;20083;-67
2023/06/26 05:53:23;;;;;;;;;;;20.60;99.90;;;20.12;70.99;101262.25;4726811;30;20057;-67
2023/06/26 05:55:52;;;;;;;3.00;2.90;;;20.50;99.90;;;20.98;71.31;101401.41;4727206;30;19926;-67
2023/06/26 05:58:25;;;;;;;3.40;3.25;;;20.50;99.90;;;21.05;71.04;101410.19;4725921;30;20428;-67
2023/06/26 06:00:53;;;;;;;2.85;2.75;;;20.60;99.90;;;21.21;70.91;101411.34;4728652;30;20122;-67
2023/06/26 06:03:21;;;;;;;2.78;2.67;;;20.70;99.90;;;21.20;70.03;101409.56;4717939;30;20057;-67
2023/06/26 06:05:50;;;;;;;3.10;3.00;;;20.80;99.90;;;21.06;70.85;101422.72;4718226;30;20077;-67
2023/06/26 06:08:19;;;;;;;3.28;3.08;;;20.70;99.90;;;20.91;71.79;101409.78;4717917;30;20049;-67
2023/06/26 06:10:48;;;;;;;2.95;2.85;;;20.50;99.90;;;21.07;70.70;101428.03;4711447;30;20072;-66
2023/06/26 06:13:16;;;;;;;4.65;3.58;;;20.60;99.90;;;21.07;70.56;101424.44;4726282;30;20101;-71
2023/06/26 06:15:45;;;;;;;7.45;3.20;;;20.60;99.90;;;21.12;70.56;101442.16;4717742;30;20075;-64
2023/06/26 06:18:13;;;;;;;3.28;3.03;;;20.70;99.90;;;21.02;69.96;101442.59;4727002;30;20061;-64
2023/06/26 06:20:41;;;;;;;3.35;3.08;;;20.60;99.90;;;21.07;69.96;101437.91;4716801;30;20443;-64
2023/06/26 06:23:10;;;;;;;3.05;2.95;;;20.70;99.90;;;20.96;69.69;101426.66;4727440;30;20106;-66
2023/06/26 06:25:39;;;;;;;3.30;3.00;;;20.60;99.90;;;20.97;69.52;101447.22;4724985;30;20552;-67
2023/06/26 06:28:08;;;;;;;3.05;2.95;;;20.60;99.90;;;21.13;69.58;101443.94;4717654;30;20057;-67
2023/06/26 06:30:36;;;;;;;4.85;3.05;;;20.70;99.90;;;21.19;68.87;101449.09;4717818;30;20057;-66
2023/06/26 06:33:12;;;;;;;2.65;2.55;;;20.80;99.90;;;21.23;68.79;101461.50;4717702;30;20466;-67
2023/06/26 06:35:40;;;;;;;2.78;2.67;;;20.90;99.90;;;21.46;68.08;101460.56;4723095;30;20467;-68
2023/06/26 06:38:09;;;;;;;2.83;2.72;;;21.00;99.90;;;21.44;67.14;101465.16;4725739;30;20056;-67
2023/06/26 06:40:39;;;;;;;2.90;2.80;;;21.10;99.90;;;21.43;65.78;101466.94;4727344;30;20053;-69
2023/06/26 06:43:08;;;;;;;3.00;2.80;;;21.10;99.90;;;21.34;66.00;101485.28;4724304;30;20045;-67
2023/06/26 06:45:37;;;;;;;2.88;2.78;;;21.00;99.90;;;21.45;67.30;101489.31;4717386;30;20107;-68
2023/06/26 06:48:06;;;;;;;3.30;3.10;;;21.00;99.90;;;21.60;67.39;101479.75;4717382;30;20049;-66
2023/06/26 06:50:34;;;;;;;2.97;2.88;;;21.20;99.90;;;21.47;66.24;101500.91;4718176;30;20056;-69
2023/06/26 06:53:03;;;;;;;6.13;3.67;;;21.20;99.90;;;21.39;66.78;101507.50;4726467;30;20053;-66
2023/06/26 06:55:33;;;;;;;3.00;2.90;;;21.10;99.90;;;21.46;67.66;101500.97;4724854;30;20061;-65
2023/06/26 06:58:03;;;;;;;3.95;3.08;;;21.10;99.90;;;21.44;67.53;101508.22;4725602;30;20140;-70
2023/06/26 07:00:33;;;;;;;3.20;3.00;;;21.10;99.90;;;21.38;67.87;101506.66;4727083;30;20084;-68
2023/06/26 07:03:03;;;;;;;3.53;3.23;;;21.00;99.90;;;21.45;68.20;101485.72;4716154;30;20189;-66
2023/06/26 07:05:32;;;;;;;2.85;2.75;;;21.30;99.90;;;21.90;66.95;101502.78;4716403;30;20080;-66
2023/06/26 07:08:00;;;;;;;2.80;2.70;;;21.50;99.90;;;21.89;65.78;101513.63;4717078;30;20443;-64
2023/06/26 07:10:30;;;;;;;3.20;3.00;;;21.60;99.90;;;21.81;65.48;101508.56;4716932;30;20057;-67
2023/06/26 07:12:59;;;;;;;2.70;2.60;;;21.50;99.90;;;21.85;65.56;101515.56;4720496;30;20503;-67
2023/06/26 07:15:29;;;;;;;2.83;2.72;;;21.50;99.90;;;21.86;65.27;101519.13;4710057;30;20132;-68
2023/06/26 07:17:57;;;;;;;2.85;2.75;;;21.50;99.90;;;22.02;64.78;101526.53;4725229;30;20060;-71
2023/06/26 07:20:26;;;;;;;2.80;2.63;;;21.70;99.90;;;22.12;64.84;101524.34;4725686;30;20583;-67
2023/06/26 07:22:54;;;;;;;3.13;3.00;;;21.80;99.90;;;21.99;64.45;101520.41;4724626;30;20056;-67
2023/06/26 07:25:23;;;;;;;2.50;2.40;;;21.70;99.90;;;21.78;64.59;101535.56;4727586;30;20512;-69
2023/06/26 07:27:51;;;;;;;3.28;3.17;;;21.50;99.90;;;21.62;65.57;101531.75;4711622;30;20159;-68
2023/06/26 07:30:20;;;;;;;2.78;2.67;;;21.40;99.90;;;21.66;66.12;101540.56;4724267;30;20087;-66
2023/06/26 07:32:50;;;;;;;2.90;2.80;;;21.30;99.90;;;21.77;65.99;101547.28;4726244;30;20143;-68
2023/06/26 07:35:19;;;;;;;7.32;3.80;;;21.40;99.90;;;21.73;66.27;101537.56;4724203;30;20427;-77
2023/06/26 07:37:48;;;;;;;3.13;3.00;;;21.50;99.90;;;21.81;65.37;101548.06;4725820;30;20080;-76
2023/06/26 07:40:17;;;;;;;5.97;4.00;;;21.50;99.90;;;21.94;65.33;101543.94;4725737;30;20076;-70
2023/06/26 07:42:46;;;;;;;3.13;2.92;;;21.60;99.90;;;21.94;65.10;101539.44;4723384;30;20069;-66
2023/06/26 07:45:14;;;;;;;3.60;2.83;;;21.60;99.90;;;21.91;63.74;101554.84;4726854;30;20060;-67
2023/06/26 07:47:43;;;;;;;3.00;2.85;;;21.60;99.90;;;21.89;64.47;101554.91;4723631;30;20064;-66
2023/06/26 07:50:15;;;;;;;2.88;2.78;;;21.50;99.90;;;22.01;64.96;101556.25;4716513;30;20092;-65
2023/06/26 07:52:44;;;;;;;2.60;2.50;;;21.70;99.90;;;22.05;63.66;101564.13;4716764;30;20073;-66
2023/06/26 07:55:12;;;;;;;2.88;2.78;;;21.70;99.90;;;22.25;63.87;101561.50;4716454;30;20060;-65
2023/06/26 07:57:41;;;;;;;2.80;2.70;;;21.90;99.90;;;22.08;63.86;101574.81;4720140;30;20087;-64
2023/06/26 08:00:11;;;;;;;2.88;2.78;;;21.80;99.90;;;22.35;63.99;101568.28;4725818;30;20131;-65
2023/06/26 08:02:42;;;;;;;3.13;2.97;;;22.00;99.90;;;22.49;63.17;101581.19;4724073;30;20071;-64
2023/06/26 08:05:12;;;;;;;2.20;2.10;;;22.10;99.90;;;22.66;62.79;101584.06;4726494;30;20083;-65
2023/06/26 08:07:41;;;;;;;2.40;2.30;;;22.30;99.90;;;22.72;62.93;101582.91;4716766;30;20079;-65
2023/06/26 08:10:11;;;;;;;2.65;2.55;;;22.40;99.90;;;22.88;63.03;101584.88;4716224;30;20064;-72
2023/06/26 08:12:42;;;;;;;3.73;3.43;;;22.50;99.90;;;22.73;62.65;101569.34;4716186;30;20074;-67
2023/06/26 08:15:12;;;;;;;6.78;2.85;;;22.50;99.90;;;22.88;63.04;101574.06;4703867;30;20303;-63
2023/06/26 08:17:40;;;;;;;3.00;2.90;;;22.70;99.90;;;22.81;62.42;101587.91;4728565;30;20053;-66
2023/06/26 08:20:12;;;;;;;3.10;3.00;;;22.60;99.90;;;22.91;63.54;101600.94;4727701;30;20045;-72
2023/06/26 08:22:41;;;;;;;2.90;2.70;;;22.60;99.90;;;22.83;62.70;101586.03;4729947;30;20110;-66
2023/06/26 08:25:10;;;;;;;3.30;3.10;;;22.60;99.90;;;22.70;62.45;101591.09;4719640;30;20420;-69
2023/06/26 08:27:39;;;;;;;2.55;2.45;;;22.50;99.90;;;22.90;63.11;101592.94;4719635;30;20061;-68
2023/06/26 08:30:08;;;;;;;2.47;2.38;;;22.60;99.90;;;22.91;62.26;101598.25;4719721;30;20080;-71
2023/06/26 08:32:37;;;;;;;2.83;2.72;;;22.60;99.90;;;22.95;61.33;101597.19;4723302;30;20060;-76
2023/06/26 08:35:10;;;;;;;2.30;2.20;;;22.60;99.90;;;23.03;61.66;101599.53;4712251;30;20110;-69
2023/06/26 08:37:40;;;;;;;4.35;3.88;;;22.70;99.90;;;23.15;60.73;101609.78;4729282;30;20053;-78
2023/06/26 08:40:09;;;;;;;3.47;3.27;;;22.80;99.90;;;23.29;59.95;101620.84;4726954;30;20049;-79
2023/06/26 08:42:38;;;;;;;3.13;2.92;;;23.00;99.90;;;23.25;59.84;101627.31;4719583;30;20353;-76
2023/06/26 08:45:07;;;;;;;2.60;2.50;;;22.90;99.90;;;22.91;60.42;101603.66;4703717;30;20065;-77
2023/06/26 08:47:37;;;;;;;3.05;2.70;;;22.80;99.90;;;22.78;60.98;101626.72;4719250;30;20425;-78
2023/06/26 08:50:09;;;;;;;;;;;22.50;99.90;;;22.63;62.03;101627.34;4722397;30;20052;-71
2023/06/26 08:52:45;;;;;;;2.40;2.30;;;22.30;99.90;;;23.02;61.83;101617.53;4728687;30;20123;-66
2023/06/26 08:55:16;;;;;;;6.88;3.25;;;22.60;99.90;;;23.21;60.83;101620.28;4726287;30;20065;-66
2023/06/26 08:57:44;;;;;;;2.58;2.47;;;22.80;99.90;;;23.29;60.89;101627.13;4726660;30;20045;-67
2023/06/26 09:00:17;;;;;;;2.78;2.67;;;22.90;99.90;;;23.45;61.08;101630.03;4728664;30;20048;-67
2023/06/26 09:02:46;;;;;;;2.75;2.58;;;23.10;99.90;;;23.42;59.87;101626.59;4727774;30;20060;-66
2023/06/26 09:05:15;;;;;;;2.80;2.60;;;23.10;99.90;;;23.55;59.60;101636.78;4727321;30;20045;-67
2023/06/26 09:07:45;;;;;;;2.50;2.40;;;23.20;99.90;;;23.44;59.44;101635.53;4728486;30;20053;-65
2023/06/26 09:10:13;;;;;;;2.78;2.67;;;23.10;99.90;;;23.75;60.12;101652.09;4726400;30;20069;-66
2023/06/26 09:12:42;;;;;;;3.90;2.88;;;23.40;99.90;;;23.51;59.50;101640.56;4729239;30;20048;-65
2023/06/26 09:15:10;;;;;;;2.63;2.53;;;23.30;99.90;;;23.41;59.21;101650.03;4729113;30;20083;-66
2023/06/26 09:17:42;;;;;;;2.47;2.38;;;23.10;99.90;;;23.31;58.87;101659.47;4726720;30;20079;-66
2023/06/26 09:20:12;;;;;;;5.95;3.00;;;23.00;99.90;;;23.20;60.60;101656.34;4728094;30;20511;-69
2023/06/26 09:22:44;;;;;;;10.65;3.47;;;22.90;99.90;;;22.80;61.39;101659.88;4727722;30;20068;-67
2023/06/26 09:25:12;;;;;;;3.42;3.22;;;22.60;99.90;;;22.85;61.37;101665.97;4726635;30;20068;-70
2023/06/26 09:27:44;;;;;;;2.95;2.83;;;22.50;99.90;;;22.91;61.85;101665.72;4712059;30;20068;-65
2023/06/26 09:30:17;;;;;;;2.15;2.05;;;22.60;99.90;;;23.09;61.38;101675.69;4718844;30;20099;-68
2023/06/26 09:32:47;;;;;;;2.85;2.75;;;22.70;99.90;;;23.07;60.38;101647.91;4726470;30;20114;-67
2023/06/26 09:35:16;;;;;;;2.67;2.58;;;22.90;99.90;;;22.99;60.54;101654.59;4727603;30;20064;-68
2023/06/26 09:37:46;;;;;;;2.70;2.60;;;22.80;99.90;;;23.34;60.50;101678.28;4727449;30;20053;-72
2023/06/26 09:40:16;;;;;;;2.75;2.53;;;23.00;99.90;;;23.44;59.10;101686.84;4726681;30;20048;-73
2023/06/26 09:42:45;;;;;;;2.63;2.53;;;23.10;99.90;;;23.66;60.93;101688.50;4728253;30;20136;-72
2023/06/26 09:45:20;;;;;;;3.08;2.88;;;23.30;99.90;;;23.33;59.68;101689.09;4725355;30;20091;-74
2023/06/26 09:47:49;;;;;;;2.33;2.22;;;23.10;99.90;;;23.23;59.93;101691.31;4702932;30;20053;-73
2023/06/26 09:50:27;;;;;;;2.53;2.42;;;22.90;99.90;;;23.14;58.51;101667.41;4718274;30;20459;-68
2023/06/26 09:52:57;;;;;;;3.25;2.83;;;22.90;99.90;;;23.01;58.28;101693.19;4717514;30;20451;-68
2023/06/26 09:55:27;;;;;;;2.53;2.42;;;22.70;99.90;;;22.81;58.90;101695.84;4721829;30;20396;-70
2023/06/26 09:57:59;;;;;;;2.80;2.70;;;22.50;99.90;;;22.93;59.75;101707.00;4724527;30;20069;-70
2023/06/26 10:00:32;;;;;;;2.45;2.35;;;22.60;99.90;;;22.88;58.53;101709.00;4727136;30;20053;-68
2023/06/26 10:03:01;;;;;;;2.55;2.45;;;22.50;99.90;;;22.94;58.13;101697.06;4727304;30;20056;-68
2023/06/26 10:05:30;;;;;;;3.50;3.30;;;22.60;99.90;;;23.00;59.67;101696.81;4726138;30;20049;-67
2023/06/26 10:08:00;;;;;;;3.13;2.92;;;22.70;99.90;;;23.11;59.38;101708.91;4727714;30;20447;-67
2023/06/26 10:10:29;;;;;;;2.97;2.72;;;22.80;99.90;;;23.13;58.28;101714.28;4725241;30;20049;-65
2023/06/26 10:13:05;;;;;;;3.58;3.28;;;22.90;99.90;;;23.23;57.30;101711.09;4718080;30;20084;-68
2023/06/26 10:15:35;;;;;;;2.55;2.45;;;23.00;99.90;;;23.25;56.52;101708.31;4718151;30;20057;-64
2023/06/26 10:18:04;;;;;;;5.20;2.80;;;23.00;99.90;;;23.17;57.42;101705.09;4718285;30;20132;-65
2023/06/26 10:20:33;;;;;;;2.65;2.20;;;22.80;99.90;;;23.30;56.28;101706.31;4727335;30;20053;-65
2023/06/26 10:23:06;;;;;;;2.50;2.40;;;22.90;99.90;;;23.36;57.37;101713.31;4726091;30;20423;-65